Terminal Aerodrome Forecast
Issued by NWS

Home | Current Version | Previous Version | Graphics & Text | Print | Product List | Glossary On
Versions: 1 2 3 4 5 6 7 8 9 10 11 12
000
FTUS43 KICT 261734
TAFHUT
TAF
KHUT 261734Z 2618/2718 17011KT P6SM SKC
     FM270000 16008KT P6SM FEW100
     FM271600 17017G26KT P6SM BKN150=

USA.gov is the U.S. government's official web portal to all federal, state and local government web resources and services.